Time;durP1;ratioP1;P1;durP2;ratioP2;P2;SDS_P1;SDS_P2;PMS_P1;PMS_P2;Temp;Humidity;BMP_temperature;BMP_pressure;BME280_temperature;BME280_humidity;BME280_pressure;Samples;Min_cycle;Max_cycle;Signal;HPM_P1;HPM_P2
2022/11/14 00:00:32;;;;;;;14.50;11.27;;;;;;;6.42;100.00;101460.16;5213477;28;20460;-75
2022/11/14 00:03:06;;;;;;;13.52;10.20;;;;;;;6.29;100.00;101454.81;5212578;28;20105;-75
2022/11/14 00:05:40;;;;;;;11.43;10.10;;;;;;;6.40;100.00;101456.78;5212757;28;20025;-74
2022/11/14 00:08:20;;;;;;;10.30;9.18;;;;;;;6.43;100.00;101452.22;5209718;28;20468;-74
2022/11/14 00:10:51;;;;;;;10.70;9.60;;;;;;;6.31;100.00;101453.78;5215422;28;20513;-74
2022/11/14 00:13:22;;;;;;;11.80;9.13;;;;;;;6.25;100.00;101448.94;5214834;28;20022;-74
2022/11/14 00:15:54;;;;;;;10.50;9.40;;;;;;;6.26;100.00;101448.00;5215836;28;20037;-74
2022/11/14 00:18:25;;;;;;;11.40;9.98;;;;;;;6.30;100.00;101451.28;5214229;28;20025;-74
2022/11/14 00:20:56;;;;;;;11.52;10.07;;;;;;;6.34;100.00;101444.97;5211740;28;20049;-74
2022/11/14 00:23:28;;;;;;;11.40;10.10;;;;;;;6.28;100.00;101445.31;5197614;28;20030;-74
2022/11/14 00:25:59;;;;;;;11.75;9.93;;;;;;;6.27;100.00;101444.47;5215626;28;20092;-74
2022/11/14 00:28:30;;;;;;;12.98;10.38;;;;;;;6.29;100.00;101452.22;5215128;28;20032;-75
2022/11/14 00:31:01;;;;;;;11.48;9.43;;;;;;;6.30;100.00;101448.69;5213540;28;20121;-74
2022/11/14 00:33:33;;;;;;;11.13;9.95;;;;;;;6.36;100.00;101442.25;5211157;28;20030;-75
2022/11/14 00:36:04;;;;;;;11.52;9.80;;;;;;;6.35;100.00;101446.63;5213228;28;20038;-74
2022/11/14 00:38:35;;;;;;;10.15;9.07;;;;;;;6.28;100.00;101437.50;5212214;28;20057;-74
2022/11/14 00:41:07;;;;;;;11.23;9.25;;;;;;;6.18;100.00;101410.34;5213193;28;20038;-74
2022/11/14 00:43:38;;;;;;;11.88;10.57;;;;;;;6.32;100.00;101432.03;5211804;28;20037;-74
2022/11/14 00:46:09;;;;;;;10.73;9.18;;;;;;;6.15;100.00;101411.38;5214192;28;20018;-74
2022/11/14 00:48:41;;;;;;;12.23;9.85;;;;;;;6.25;100.00;101429.88;5214879;28;20034;-74
2022/11/14 00:51:12;;;;;;;10.25;9.13;;;;;;;6.33;100.00;101422.47;5214946;28;20535;-74
2022/11/14 00:53:43;;;;;;;10.55;9.50;;;;;;;6.31;100.00;101426.91;5210259;28;20156;-74
2022/11/14 00:56:15;;;;;;;11.73;9.85;;;;;;;6.22;100.00;101415.28;5213046;28;20104;-75
2022/11/14 00:58:46;;;;;;;12.35;9.98;;;;;;;6.22;100.00;101411.84;5214406;28;20022;-74
2022/11/14 01:01:18;;;;;;;11.45;9.40;;;;;;;6.23;100.00;101406.56;5214936;28;20029;-74
2022/11/14 01:03:50;;;;;;;13.35;9.18;;;;;;;6.24;100.00;101410.81;5209563;28;20040;-74
2022/11/14 01:06:22;;;;;;;11.85;9.80;;;;;;;6.25;100.00;101401.25;5214450;28;20041;-75
2022/11/14 01:08:53;;;;;;;11.40;8.65;;;;;;;6.22;100.00;101398.84;5211455;28;20041;-74
2022/11/14 01:11:24;;;;;;;11.30;9.30;;;;;;;6.21;100.00;101394.53;5213539;28;20088;-74
2022/11/14 01:13:55;;;;;;;9.65;8.52;;;;;;;6.26;100.00;101387.34;5212001;28;20749;-74
2022/11/14 01:16:27;;;;;;;11.70;8.68;;;;;;;6.27;100.00;101397.63;5213205;28;20084;-74
2022/11/14 01:18:58;;;;;;;10.63;8.90;;;;;;;6.23;100.00;101385.72;5214356;28;20029;-74
2022/11/14 01:21:29;;;;;;;10.32;9.07;;;;;;;6.18;100.00;101381.75;5214543;28;20111;-74
2022/11/14 01:24:01;;;;;;;12.98;9.05;;;;;;;6.23;100.00;101382.28;5212944;28;20022;-75
2022/11/14 01:26:32;;;;;;;10.00;8.40;;;;;;;6.12;100.00;101377.72;5212590;28;20038;-74
2022/11/14 01:29:04;;;;;;;9.40;7.80;;;;;;;6.12;100.00;101377.72;5206988;28;20108;-74
2022/11/14 01:31:35;;;;;;;12.82;8.05;;;;;;;6.04;100.00;101367.75;5212598;28;20038;-74
2022/11/14 01:34:06;;;;;;;10.80;7.97;;;;;;;5.96;100.00;101380.34;5213318;28;20029;-74
2022/11/14 01:36:38;;;;;;;10.00;8.25;;;;;;;5.90;100.00;101362.47;5213905;28;20105;-74
2022/11/14 01:39:09;;;;;;;8.65;7.75;;;;;;;5.90;100.00;101372.03;5211399;28;20558;-74
2022/11/14 01:41:40;;;;;;;10.32;8.00;;;;;;;5.87;100.00;101367.81;5212634;28;20471;-74
2022/11/14 01:44:15;;;;;;;11.05;7.65;;;;;;;5.88;100.00;101366.94;5209480;28;20476;-74
2022/11/14 01:46:54;;;;;;;10.80;7.90;;;;;;;5.88;100.00;101366.94;5211056;28;20495;-74
2022/11/14 01:49:36;;;;;;;9.48;7.72;;;;;;;5.81;100.00;101370.78;5212806;28;20491;-75
2022/11/14 01:52:16;;;;;;;9.27;7.65;;;;;;;5.75;100.00;101371.97;5214405;28;20026;-74
2022/11/14 01:54:50;;;;;;;9.60;7.65;;;;;;;5.61;100.00;101367.56;5211090;28;20541;-74
2022/11/14 01:57:27;;;;;;;10.98;7.82;;;;;;;5.63;100.00;101374.41;5214536;28;20424;-74
2022/11/14 02:00:04;;;;;;;9.45;7.30;;;;;;;5.56;100.00;101356.56;5212588;28;20172;-74
2022/11/14 02:02:37;;;;;;;9.00;7.60;;;;;;;5.42;100.00;101359.09;5210203;28;20037;-74
2022/11/14 02:05:12;;;;;;;9.73;7.33;;;;;;;5.45;100.00;101356.31;5214120;28;20040;-74
2022/11/14 02:07:43;;;;;;;8.65;7.60;;;;;;;5.34;100.00;101356.91;5211651;28;20105;-74
2022/11/14 02:10:19;;;;;;;12.40;7.90;;;;;;;5.30;100.00;101339.81;5212670;28;20044;-74
2022/11/14 02:12:51;;;;;;;9.88;8.02;;;;;;;5.24;100.00;101347.09;5213013;28;20022;-74
2022/11/14 02:15:23;;;;;;;9.85;7.63;;;;;;;5.21;100.00;101352.47;5213473;28;20033;-74
2022/11/14 02:17:55;;;;;;;9.30;7.80;;;;;;;5.28;100.00;101343.41;5210453;28;20422;-74
2022/11/14 02:20:31;;;;;;;10.20;7.38;;;;;;;5.34;100.00;101349.13;5210791;28;20037;-74
2022/11/14 02:23:03;;;;;;;12.85;7.97;;;;;;;5.29;100.00;101334.69;5213750;28;20115;-74
2022/11/14 02:25:34;;;;;;;12.13;7.85;;;;;;;5.34;100.00;101337.88;5211027;28;20060;-74
2022/11/14 02:28:08;;;;;;;10.95;6.95;;;;;;;5.33;100.00;101325.81;5212524;28;20017;-74
2022/11/14 02:30:39;;;;;;;8.40;7.45;;;;;;;5.26;100.00;101320.09;5213313;28;20034;-75
2022/11/14 02:33:10;;;;;;;10.68;7.70;;;;;;;5.31;100.00;101325.06;5211677;28;20033;-74
2022/11/14 02:35:42;;;;;;;9.43;7.72;;;;;;;5.34;100.00;101323.16;5211702;28;20035;-74
2022/11/14 02:40:47;;;;;;;7.80;6.63;;;;;;;5.23;100.00;101338.47;5253849;28;20037;-68
2022/11/14 02:43:18;;;;;;;9.88;7.75;;;;;;;5.15;100.00;101321.63;5257733;28;20043;-69
2022/11/14 02:45:49;;;;;;;11.40;7.85;;;;;;;5.15;100.00;101334.59;5257996;28;20091;-68
2022/11/14 02:48:20;;;;;;;10.07;7.20;;;;;;;5.13;100.00;101329.50;5256785;28;20104;-68
2022/11/14 02:50:52;;;;;;;7.97;6.85;;;;;;;5.08;100.00;101321.97;5273534;28;20040;-68
2022/11/14 02:53:23;;;;;;;10.07;7.20;;;;;;;5.03;100.00;101316.16;5276316;28;20031;-68
2022/11/14 02:55:54;;;;;;;8.55;6.20;;;;;;;5.07;100.00;101322.03;5274064;28;20070;-68
2022/11/14 02:58:25;;;;;;;9.20;7.45;;;;;;;4.99;100.00;101311.22;5264008;28;20487;-68
2022/11/14 03:00:57;;;;;;;8.80;6.63;;;;;;;4.98;100.00;101312.16;5275784;28;20094;-69
2022/11/14 03:03:28;;;;;;;7.78;6.45;;;;;;;4.97;100.00;101305.28;5276982;28;20074;-71
2022/11/14 03:06:01;;;;;;;8.82;6.95;;;;;;;4.84;100.00;101313.72;5278178;28;20063;-71
2022/11/14 03:08:32;;;;;;;7.80;6.95;;;;;;;4.79;100.00;101310.53;5274745;28;20044;-70
2022/11/14 03:11:05;;;;;;;8.10;6.88;;;;;;;4.78;100.00;101302.84;5276373;28;20482;-70
2022/11/14 03:13:37;;;;;;;9.65;6.40;;;;;;;4.72;100.00;101295.38;5271447;28;20028;-70
2022/11/14 03:16:10;;;;;;;9.30;6.68;;;;;;;4.76;100.00;101296.88;5273211;28;20033;-71
2022/11/14 03:18:42;;;;;;;8.38;6.85;;;;;;;4.73;100.00;101300.47;5275765;28;20158;-70
2022/11/14 03:21:19;;;;;;;8.25;6.45;;;;;;;4.81;100.00;101303.53;5273700;28;20165;-71
2022/11/14 03:23:50;;;;;;;8.18;6.57;;;;;;;4.58;100.00;101299.53;5274339;28;20028;-71
2022/11/14 03:26:21;;;;;;;7.00;6.22;;;;;;;4.55;100.00;101293.69;5275548;28;20031;-71
2022/11/14 03:28:54;;;;;;;8.30;6.72;;;;;;;4.52;100.00;101292.06;5273934;28;21063;-71
2022/11/14 03:31:25;;;;;;;10.10;7.43;;;;;;;4.49;100.00;101292.22;5273092;28;20156;-71
2022/11/14 03:33:56;;;;;;;10.50;6.82;;;;;;;4.50;100.00;101287.88;5270578;28;20073;-70
2022/11/14 03:36:28;;;;;;;9.65;7.10;;;;;;;4.55;100.00;101291.09;5275496;28;20400;-70
2022/11/14 03:38:59;;;;;;;8.05;6.28;;;;;;;4.46;100.00;101287.19;5273881;28;20044;-70
2022/11/14 03:41:31;;;;;;;9.20;6.50;;;;;;;4.44;100.00;101281.25;5273092;28;20032;-70
2022/11/14 03:44:02;;;;;;;8.70;7.18;;;;;;;4.50;100.00;101277.50;5274675;28;20039;-70
2022/11/14 03:46:33;;;;;;;8.38;6.35;;;;;;;4.55;100.00;101284.13;5275349;28;20059;-70
2022/11/14 03:49:05;;;;;;;10.63;7.82;;;;;;;4.55;100.00;101285.91;5276679;28;20055;-70
2022/11/14 03:51:36;;;;;;;10.02;7.15;;;;;;;4.58;100.00;101290.91;5277800;28;20094;-70
2022/11/14 03:54:07;;;;;;;9.63;7.07;;;;;;;4.57;100.00;101284.88;5273025;28;20115;-70
2022/11/14 03:56:39;;;;;;;11.95;7.00;;;;;;;4.54;100.00;101279.84;5275286;28;20028;-70
2022/11/14 03:59:10;;;;;;;8.82;6.97;;;;;;;4.52;100.00;101279.09;5268495;28;20060;-70
2022/11/14 04:01:41;;;;;;;8.70;6.20;;;;;;;4.51;100.00;101276.56;5275981;28;20047;-70
2022/11/14 04:04:12;;;;;;;8.65;7.05;;;;;;;4.48;100.00;101267.22;5275790;28;20032;-68
2022/11/14 04:06:44;;;;;;;7.50;6.50;;;;;;;4.44;100.00;101267.47;5276517;28;20027;-68
2022/11/14 04:09:16;;;;;;;7.63;6.60;;;;;;;4.37;100.00;101261.75;5275069;28;20032;-68
2022/11/14 04:11:47;;;;;;;10.68;7.20;;;;;;;4.36;100.00;101255.72;5276147;28;20025;-69
2022/11/14 04:14:18;;;;;;;8.35;6.53;;;;;;;4.34;100.00;101261.91;5274416;28;20036;-69
2022/11/14 04:16:49;;;;;;;8.75;6.88;;;;;;;4.32;100.00;101254.22;5275917;28;20012;-69
2022/11/14 04:19:24;;;;;;;8.52;6.85;;;;;;;4.42;100.00;101257.13;5273396;28;20039;-69
2022/11/14 04:21:55;;;;;;;8.57;6.95;;;;;;;4.21;100.00;101255.69;5273539;28;20039;-69
2022/11/14 04:24:26;;;;;;;9.23;6.93;;;;;;;4.21;100.00;101255.69;5274915;28;20016;-69
2022/11/14 04:26:58;;;;;;;11.32;6.82;;;;;;;4.14;100.00;101250.81;5277202;28;20028;-69
2022/11/14 04:29:29;;;;;;;8.60;6.70;;;;;;;4.13;100.00;101248.31;5270789;28;20059;-69
2022/11/14 04:32:00;;;;;;;7.60;6.13;;;;;;;4.14;100.00;101245.63;5271270;28;20026;-69
2022/11/14 04:34:31;;;;;;;8.63;6.38;;;;;;;4.09;100.00;101246.75;5276996;28;20032;-69
2022/11/14 04:37:03;;;;;;;8.82;6.05;;;;;;;4.07;100.00;101238.22;5275197;28;20100;-69
2022/11/14 04:39:34;;;;;;;9.02;6.40;;;;;;;4.03;100.00;101245.31;5271422;28;20056;-69
2022/11/14 04:42:05;;;;;;;9.82;6.30;;;;;;;3.98;100.00;101243.88;5273787;28;20089;-69
2022/11/14 04:44:36;;;;;;;9.90;6.93;;;;;;;3.95;100.00;101237.09;5276323;28;20044;-69
2022/11/14 04:47:08;;;;;;;8.98;7.00;;;;;;;3.92;100.00;101232.06;5274397;28;20028;-69
2022/11/14 04:49:39;;;;;;;9.48;7.32;;;;;;;3.90;100.00;101231.28;5272831;28;20025;-69
2022/11/14 04:52:10;;;;;;;8.40;6.00;;;;;;;3.87;100.00;101234.06;5276366;28;20998;-69
2022/11/14 04:54:42;;;;;;;8.82;6.35;;;;;;;3.84;100.00;101229.03;5271417;28;20420;-69
2022/11/14 04:57:13;;;;;;;8.57;5.90;;;;;;;3.84;100.00;101229.03;5275834;28;20048;-69
2022/11/14 04:59:44;;;;;;;8.20;6.68;;;;;;;3.81;100.00;101229.19;5272009;28;20088;-69
2022/11/14 05:02:16;;;;;;;9.07;6.90;;;;;;;3.79;100.00;101224.09;5264447;28;20036;-69
2022/11/14 05:04:47;;;;;;;8.60;7.13;;;;;;;3.79;100.00;101233.59;5272711;28;20024;-69
2022/11/14 05:07:18;;;;;;;7.80;6.82;;;;;;;3.77;100.00;101236.28;5262804;28;20475;-68
2022/11/14 05:09:49;;;;;;;8.75;6.72;;;;;;;3.77;100.00;101238.03;5262195;28;20064;-69
2022/11/14 05:12:21;;;;;;;9.55;7.22;;;;;;;3.82;100.00;101233.44;5270472;28;20028;-69
2022/11/14 05:14:52;;;;;;;8.60;6.90;;;;;;;3.81;100.00;101216.22;5274480;28;20515;-68
2022/11/14 05:17:23;;;;;;;9.02;6.07;;;;;;;3.85;100.00;101215.16;5273251;28;20480;-69
2022/11/14 05:19:55;;;;;;;10.80;7.13;;;;;;;3.88;100.00;101215.84;5272883;28;20071;-69
2022/11/14 05:22:26;;;;;;;10.38;7.13;;;;;;;3.85;100.00;101207.38;5268623;28;20052;-69
2022/11/14 05:24:57;;;;;;;11.65;8.02;;;;;;;3.88;100.00;101207.22;5263886;28;20024;-68
2022/11/14 05:27:28;;;;;;;10.77;7.22;;;;;;;3.89;100.00;101199.34;5267668;28;20043;-69
2022/11/14 05:30:00;;;;;;;8.93;7.22;;;;;;;3.83;100.00;101204.88;5251959;28;20053;-69
2022/11/14 05:32:31;;;;;;;7.72;6.50;;;;;;;3.81;100.00;101193.72;5256363;28;20452;-69
2022/11/14 05:35:03;;;;;;;9.65;6.63;;;;;;;3.78;100.00;101200.81;5267549;28;20039;-68
2022/11/14 05:37:34;;;;;;;10.70;7.32;;;;;;;3.78;100.00;101200.81;5258906;28;20046;-69
2022/11/14 05:40:06;;;;;;;8.95;6.82;;;;;;;3.80;100.00;101196.41;5267099;28;20146;-69
2022/11/14 05:42:37;;;;;;;9.65;7.07;;;;;;;3.74;100.00;101189.78;5264681;28;20039;-69
2022/11/14 05:45:09;;;;;;;10.00;7.68;;;;;;;3.77;100.00;101186.19;5264559;28;20481;-69
2022/11/14 05:47:40;;;;;;;8.65;7.18;;;;;;;3.74;100.00;101189.78;5240076;28;20032;-68
2022/11/14 05:50:12;;;;;;;10.43;7.22;;;;;;;3.82;100.00;101189.38;5273087;28;20157;-69
2022/11/14 05:52:43;;;;;;;9.88;7.07;;;;;;;3.88;100.00;101192.50;5270291;28;20036;-69
2022/11/14 05:55:14;;;;;;;9.93;7.00;;;;;;;3.88;100.00;101194.28;5272494;28;20032;-69
2022/11/14 05:57:45;;;;;;;10.68;7.65;;;;;;;3.95;100.00;101205.16;5271863;28;20048;-69
2022/11/14 06:00:17;;;;;;;12.30;7.35;;;;;;;3.94;100.00;101196.56;5268284;28;20079;-69
2022/11/14 06:02:52;;;;;;;9.80;7.60;;;;;;;4.03;100.00;101198.66;5273617;28;20066;-68
2022/11/14 06:05:23;;;;;;;10.00;7.63;;;;;;;4.04;100.00;101194.31;5272057;28;20035;-68
2022/11/14 06:07:56;;;;;;;11.07;7.05;;;;;;;3.97;100.00;101186.00;5269984;28;20029;-68
2022/11/14 06:10:27;;;;;;;10.13;6.70;;;;;;;3.96;100.00;101189.53;5273067;28;20527;-68
2022/11/14 06:12:59;;;;;;;9.73;6.90;;;;;;;3.82;100.00;101182.44;5275142;28;20025;-68
2022/11/14 06:15:30;;;;;;;12.80;7.35;;;;;;;3.84;100.00;101184.97;5275896;28;20024;-68
2022/11/14 06:18:01;;;;;;;9.75;7.13;;;;;;;3.75;100.00;101188.88;5275749;28;20059;-68
2022/11/14 06:20:32;;;;;;;9.90;7.22;;;;;;;3.71;100.00;101195.09;5275550;28;20054;-68
2022/11/14 06:23:04;;;;;;;9.25;7.13;;;;;;;3.71;100.00;101196.88;5276291;28;20537;-68
2022/11/14 06:25:35;;;;;;;7.95;6.32;;;;;;;3.68;100.00;101200.47;5277645;28;20043;-68
2022/11/14 06:28:06;;;;;;;9.30;6.95;;;;;;;3.63;100.00;101202.44;5276420;28;20064;-68
2022/11/14 06:30:38;;;;;;;10.32;7.07;;;;;;;3.64;100.00;101189.41;5273172;28;20025;-68
2022/11/14 06:33:09;;;;;;;12.05;6.97;;;;;;;3.58;100.00;101186.28;5275848;28;20111;-68
2022/11/14 06:35:40;;;;;;;9.52;6.63;;;;;;;3.62;100.00;101186.06;5275654;28;20025;-68
2022/11/14 06:38:11;;;;;;;9.65;6.97;;;;;;;3.56;100.00;101183.78;5272052;28;20021;-68
2022/11/14 06:40:43;;;;;;;10.68;6.97;;;;;;;3.55;100.00;101184.69;5277136;28;20041;-69
2022/11/14 06:43:14;;;;;;;10.48;6.95;;;;;;;3.48;100.00;101188.50;5273743;28;20111;-69
2022/11/14 06:45:45;;;;;;;11.10;7.03;;;;;;;3.48;100.00;101190.25;5275967;28;20048;-69
2022/11/14 06:48:16;;;;;;;8.27;6.07;;;;;;;3.44;100.00;101193.91;5276234;28;20037;-69
2022/11/14 06:50:55;;;;;;;10.20;6.88;;;;;;;3.55;100.00;101205.41;5276734;28;20013;-69
2022/11/14 06:53:29;;;;;;;9.93;6.53;;;;;;;3.39;100.00;101205.34;5272606;28;20024;-69
2022/11/14 06:56:06;;;;;;;11.35;7.20;;;;;;;3.42;100.00;101209.53;5276964;28;20154;-69
2022/11/14 06:58:46;;;;;;;12.02;7.40;;;;;;;3.47;100.00;101196.34;5270373;28;21507;-69
2022/11/14 07:01:24;;;;;;;7.90;6.32;;;;;;;3.41;100.00;101207.88;5274928;28;20530;-69
2022/11/14 07:03:57;;;;;;;10.82;7.40;;;;;;;3.35;100.00;101205.56;5274826;28;20082;-69
2022/11/14 07:06:29;;;;;;;9.45;7.10;;;;;;;3.38;100.00;101206.25;5275666;28;20370;-69
2022/11/14 07:09:01;;;;;;;11.88;7.32;;;;;;;3.33;100.00;101209.97;5273907;28;20034;-69
2022/11/14 07:11:34;;;;;;;8.93;6.25;;;;;;;3.37;100.00;101217.53;5275448;28;20020;-69
2022/11/14 07:14:05;;;;;;;9.68;6.70;;;;;;;3.32;100.00;101216.91;5276423;28;20047;-69
2022/11/14 07:16:37;;;;;;;12.95;7.85;;;;;;;3.45;100.00;101216.28;5273767;28;20021;-69
2022/11/14 07:19:09;;;;;;;8.98;7.13;;;;;;;3.35;100.00;101208.97;5275240;28;20028;-69
2022/11/14 07:21:40;;;;;;;10.40;7.53;;;;;;;3.34;100.00;101214.25;5273408;28;20017;-69
2022/11/14 07:24:12;;;;;;;9.35;7.63;;;;;;;3.35;100.00;101215.91;5277637;28;20024;-69
2022/11/14 07:26:44;;;;;;;9.88;7.30;;;;;;;3.40;100.00;101222.53;5273535;28;20082;-69
2022/11/14 07:29:16;;;;;;;10.32;7.95;;;;;;;3.38;100.00;101218.38;5273881;28;20119;-69
2022/11/14 07:31:47;;;;;;;8.43;7.07;;;;;;;3.37;100.00;101207.16;5274274;28;20136;-69
2022/11/14 07:34:18;;;;;;;9.95;7.70;;;;;;;3.42;100.00;101209.53;5272419;28;20039;-69
2022/11/14 07:36:50;;;;;;;17.38;9.07;;;;;;;3.47;100.00;101209.28;5275994;28;20127;-69
2022/11/14 07:39:21;;;;;;;10.75;7.88;;;;;;;3.54;100.00;101197.72;5276518;28;20510;-69
2022/11/14 07:41:53;;;;;;;9.77;7.85;;;;;;;3.59;100.00;101201.75;5269970;28;20060;-69
2022/11/14 07:44:24;;;;;;;10.05;7.70;;;;;;;3.61;100.00;101194.75;5274063;28;20055;-69
2022/11/14 07:46:55;;;;;;;11.93;7.88;;;;;;;3.74;100.00;101191.53;5273288;28;20070;-69
2022/11/14 07:49:26;;;;;;;12.38;7.78;;;;;;;3.73;100.00;101185.50;5272977;28;20025;-69
2022/11/14 07:51:57;;;;;;;10.88;7.95;;;;;;;3.77;100.00;101191.38;5272036;28;20462;-69
2022/11/14 07:54:29;;;;;;;12.15;7.85;;;;;;;3.80;100.00;101186.88;5274327;28;20500;-69
2022/11/14 07:57:00;;;;;;;11.25;8.30;;;;;;;3.88;100.00;101183.91;5271567;28;20020;-69
2022/11/14 07:59:31;;;;;;;10.57;7.93;;;;;;;3.90;100.00;101192.41;5271633;28;20024;-69
2022/11/14 08:02:03;;;;;;;13.57;8.70;;;;;;;3.92;100.00;101182.00;5275016;28;20548;-69
2022/11/14 08:04:34;;;;;;;14.23;8.55;;;;;;;3.93;100.00;101179.31;5273875;28;20036;-69
2022/11/14 08:07:05;;;;;;;13.57;9.10;;;;;;;4.09;100.00;101171.56;5263475;28;20052;-69
2022/11/14 08:09:37;;;;;;;11.18;8.63;;;;;;;4.19;100.00;101171.94;5271878;28;20041;-69
2022/11/14 08:12:08;;;;;;;10.52;8.93;;;;;;;4.30;100.00;101169.59;5274154;28;20548;-69
2022/11/14 08:14:39;;;;;;;13.95;9.77;;;;;;;4.43;100.00;101172.38;5272942;28;20542;-69
2022/11/14 08:17:10;;;;;;;13.75;9.63;;;;;;;4.54;100.00;101165.66;5270459;28;20028;-69
2022/11/14 08:19:42;;;;;;;12.10;9.25;;;;;;;4.61;100.00;101159.22;5271418;28;20032;-69
2022/11/14 08:22:13;;;;;;;13.63;9.43;;;;;;;4.74;100.00;101158.59;5273019;28;20028;-69
2022/11/14 08:24:44;;;;;;;12.77;9.43;;;;;;;4.83;100.00;101151.09;5269081;28;20032;-69
2022/11/14 08:27:16;;;;;;;12.93;8.95;;;;;;;4.84;100.00;101154.53;5274426;28;20032;-69
2022/11/14 08:29:47;;;;;;;13.18;9.38;;;;;;;4.87;100.00;101160.38;5274293;28;20019;-69
2022/11/14 08:32:20;;;;;;;11.80;9.43;;;;;;;4.96;100.00;101156.44;5273576;28;20063;-69
2022/11/14 08:34:51;;;;;;;13.90;8.77;;;;;;;4.99;100.00;101153.66;5270041;28;20024;-69
2022/11/14 08:37:22;;;;;;;12.65;9.32;;;;;;;5.15;100.00;101155.41;5271810;28;20036;-69
2022/11/14 08:39:53;;;;;;;12.48;9.57;;;;;;;5.23;100.00;101151.47;5274677;28;20040;-69
2022/11/14 08:42:25;;;;;;;12.65;9.40;;;;;;;5.30;100.00;101144.13;5269168;28;20123;-69
2022/11/14 08:44:56;;;;;;;12.90;9.40;;;;;;;5.41;100.00;101146.09;5274163;28;20027;-69
2022/11/14 08:47:27;;;;;;;12.38;9.30;;;;;;;5.49;100.00;101139.56;5274132;28;20054;-69
2022/11/14 08:49:58;;;;;;;11.52;9.18;;;;;;;5.54;100.00;101134.06;5271028;28;20063;-69
2022/11/14 08:52:30;;;;;;;10.68;8.95;;;;;;;5.60;100.00;101131.94;5270430;28;20435;-69
2022/11/14 08:55:01;;;;;;;11.63;8.50;;;;;;;5.76;100.00;101144.03;5271903;28;20491;-69
2022/11/14 08:57:32;;;;;;;11.32;9.32;;;;;;;5.84;100.00;101147.00;5271632;28;20100;-69
2022/11/14 09:00:04;;;;;;;13.07;9.20;;;;;;;5.91;100.00;101148.31;5271928;28;20087;-69
2022/11/14 09:02:35;;;;;;;16.38;10.32;;;;;;;5.95;100.00;101142.03;5269469;28;20032;-69
2022/11/14 09:05:07;;;;;;;11.52;9.35;;;;;;;6.09;100.00;101144.59;5271660;28;20481;-69
2022/11/14 09:07:38;;;;;;;11.27;9.27;;;;;;;6.15;100.00;101139.97;5272322;28;20021;-69
2022/11/14 09:10:10;;;;;;;11.55;8.80;;;;;;;6.20;100.00;101130.13;5271825;28;20020;-69
2022/11/14 09:12:41;;;;;;;12.43;9.68;;;;;;;6.25;100.00;101128.91;5273910;28;20374;-69
2022/11/14 09:15:12;;;;;;;11.48;9.73;;;;;;;6.32;100.00;101129.34;5273131;28;20059;-69
2022/11/14 09:17:43;;;;;;;11.75;9.45;;;;;;;6.39;100.00;101128.03;5272950;28;20020;-69
2022/11/14 09:20:15;;;;;;;11.55;9.77;;;;;;;6.52;100.00;101128.13;5274161;28;20104;-69
2022/11/14 09:22:46;;;;;;;10.60;9.18;;;;;;;6.56;100.00;101114.81;5273230;28;20028;-69
2022/11/14 09:25:19;;;;;;;10.27;8.85;;;;;;;6.66;100.00;101107.22;5272772;28;20111;-69
2022/11/14 09:27:50;;;;;;;12.63;10.20;;;;;;;6.69;100.00;101107.03;5271422;28;20107;-69
2022/11/14 09:30:21;;;;;;;10.68;8.73;;;;;;;6.83;100.00;101114.78;5273652;28;20207;-69
2022/11/14 09:32:58;;;;;;;10.98;9.23;;;;;;;6.97;100.00;101100.88;5272671;28;20763;-69
2022/11/14 09:35:30;;;;;;;10.68;8.63;;;;;;;6.98;100.00;101117.34;5274095;28;20103;-69
2022/11/14 09:38:04;;;;;;;11.68;9.85;;;;;;;7.10;100.00;101111.31;5270987;28;20040;-69
2022/11/14 09:41:03;;;;;;;10.70;9.35;;;;;;;7.19;100.00;101105.50;5241392;28;20041;-69
2022/11/14 09:43:57;;;;;;;15.02;10.35;;;;;;;7.41;100.00;101102.28;5268939;28;20040;-69
2022/11/14 09:46:37;;;;;;;13.45;9.88;;;;;;;7.45;100.00;101101.13;5275746;28;20033;-69
2022/11/14 09:49:31;;;;;;;11.02;9.35;;;;;;;7.63;100.00;101093.84;5276918;28;20025;-69
2022/11/14 09:52:35;;;;;;;;;;;;;;;7.98;100.00;101104.44;5277998;28;20050;-69
2022/11/14 09:55:21;;;;;;;11.13;9.88;;;;;;;7.75;100.00;101106.03;5214255;28;20010;-69
2022/11/14 09:57:53;;;;;;;12.43;9.75;;;;;;;7.79;100.00;101111.88;5273563;28;20035;-69
2022/11/14 10:00:29;;;;;;;15.15;10.63;;;;;;;7.89;100.00;101105.09;5277273;28;20040;-69
2022/11/14 10:03:27;;;;;;;11.25;9.65;;;;;;;8.13;100.00;101107.75;5276537;28;20063;-69
2022/11/14 10:06:17;;;;;;;12.88;9.05;;;;;;;8.11;100.00;101104.44;5275599;28;20145;-69
2022/11/14 10:09:07;;;;;;;12.65;9.40;;;;;;;8.08;100.00;101101.22;5275182;28;20381;-69
2022/11/14 10:11:45;;;;;;;12.93;9.48;;;;;;;8.28;100.00;101103.25;5275590;28;20054;-69
2022/11/14 10:14:52;;;;;;;12.73;9.38;;;;;;;8.56;100.00;101098.66;5256069;28;20032;-69
2022/11/14 10:17:56;;;;;;;13.50;9.55;;;;;;;8.62;100.00;101106.91;5274126;28;20466;-69
2022/11/14 10:20:38;;;;;;;11.25;9.55;;;;;;;8.57;100.00;101105.59;5276741;28;20013;-69
2022/11/14 10:23:46;;;;;;;12.02;9.35;;;;;;;8.75;100.00;101099.88;5275766;28;20024;-69
2022/11/14 10:26:29;;;;;;;10.85;9.13;;;;;;;8.79;100.00;101095.25;5276004;28;20408;-69
2022/11/14 10:29:30;;;;;;;10.82;8.98;;;;;;;8.82;100.00;101088.94;5276041;28;20025;-69
2022/11/14 10:32:14;;;;;;;12.70;8.98;;;;;;;8.99;100.00;101092.00;5275071;28;20046;-69
2022/11/14 10:34:53;;;;;;;15.10;9.70;;;;;;;9.02;100.00;101085.72;5275013;28;20021;-69
2022/11/14 10:37:28;;;;;;;11.52;8.90;;;;;;;8.97;100.00;101086.03;5275051;28;20031;-69
2022/11/14 10:40:23;;;;;;;14.10;9.85;;;;;;;9.20;100.00;101093.94;5274497;28;20044;-69
2022/11/14 10:43:00;;;;;;;13.88;9.75;;;;;;;8.99;100.00;101094.59;5271120;28;20033;-69
2022/11/14 10:45:35;;;;;;;11.68;9.98;;;;;;;9.10;100.00;101090.38;5275510;28;20052;-69
2022/11/14 10:48:12;;;;;;;15.57;10.38;;;;;;;9.13;100.00;101088.34;5274390;28;20032;-69
2022/11/14 10:50:56;;;;;;;11.25;10.05;;;;;;;9.19;100.00;101087.88;5274958;28;20450;-69
2022/11/14 10:53:43;;;;;;;16.70;10.02;;;;;;;9.40;100.00;101085.44;5270808;28;20390;-69
2022/11/14 10:56:14;;;;;;;12.20;9.57;;;;;;;9.33;100.00;101075.56;5274412;28;20028;-69
2022/11/14 10:58:45;;;;;;;11.15;9.30;;;;;;;9.36;100.00;101068.31;5273995;28;20523;-69
2022/11/14 11:01:38;;;;;;;14.18;10.32;;;;;;;9.61;100.00;101066.44;5274872;28;20021;-69
2022/11/14 11:04:11;;;;;;;14.33;9.03;;;;;;;9.50;100.00;101068.06;5276006;28;20535;-69
2022/11/14 11:06:42;;;;;;;12.00;9.80;;;;;;;9.55;100.00;101064.31;5276522;28;20262;-69
2022/11/14 11:12:18;;;;;;;12.25;10.05;;;;;;;9.79;100.00;101064.19;5262461;28;20159;-69
2022/11/14 11:15:18;;;;;;;11.00;9.90;;;;;;;9.95;100.00;101057.59;5273982;28;20047;-69
2022/11/14 11:17:55;;;;;;;15.48;11.05;;;;;;;9.93;100.00;101046.44;5279404;28;20460;-69
2022/11/14 11:20:31;;;;;;;13.40;10.57;;;;;;;10.01;100.00;101039.78;5276725;28;20062;-69
2022/11/14 11:23:25;;;;;;;13.38;10.38;;;;;;;10.28;100.00;101034.16;5272416;28;20111;-69
2022/11/14 11:26:07;;;;;;;12.27;10.95;;;;;;;10.21;100.00;101031.16;5273648;28;20040;-69
2022/11/14 11:28:39;;;;;;;14.30;11.38;;;;;;;10.04;100.00;101021.19;5273362;28;20021;-69
2022/11/14 11:31:10;;;;;;;13.90;11.45;;;;;;;10.18;100.00;101029.59;5274381;28;20457;-70
2022/11/14 11:33:42;;;;;;;13.43;11.45;;;;;;;10.19;100.00;101023.44;5267425;28;20051;-69
2022/11/14 11:36:18;;;;;;;12.50;11.18;;;;;;;10.38;100.00;101014.97;5271815;28;20028;-69
2022/11/14 11:38:49;;;;;;;12.43;10.85;;;;;;;10.33;100.00;101011.03;5273060;28;20052;-70
2022/11/14 11:41:34;;;;;;;13.52;11.63;;;;;;;10.43;100.00;101007.53;5271214;28;20126;-70
2022/11/14 11:44:11;;;;;;;14.43;11.70;;;;;;;10.50;100.00;101015.75;5273307;28;20032;-70
2022/11/14 11:46:58;;;;;;;13.60;10.85;;;;;;;10.47;100.00;101022.06;5269173;28;20021;-70
2022/11/14 11:49:29;;;;;;;14.00;11.88;;;;;;;10.48;100.00;101010.59;5269102;28;20040;-70
2022/11/14 11:52:18;;;;;;;13.10;11.45;;;;;;;10.69;100.00;101022.94;5268154;28;20032;-70
2022/11/14 11:54:59;;;;;;;15.25;12.30;;;;;;;10.65;100.00;101013.66;5267846;28;20033;-70